Time;durP1;ratioP1;P1;durP2;ratioP2;P2;SDS_P1;SDS_P2;PMS_P1;PMS_P2;Temp;Humidity;BMP_temperature;BMP_pressure;BME280_temperature;BME280_humidity;BME280_pressure;Samples;Min_cycle;Max_cycle;Signal;HPM_P1;HPM_P2
2023/04/18 00:00:17;;;;;;;8.23;4.20;;;9.30;98.00;;;;;;5052365;28;20890;-65
2023/04/18 00:02:44;;;;;;;11.43;4.33;;;9.30;98.00;;;;;;5052301;28;20469;-65
2023/04/18 00:05:12;;;;;;;11.23;4.40;;;9.40;98.00;;;;;;5052330;28;20870;-65
2023/04/18 00:07:41;;;;;;;8.80;3.57;;;9.40;98.00;;;;;;5051997;28;20546;-66
2023/04/18 00:10:10;;;;;;;9.97;4.07;;;9.30;98.00;;;;;;5052257;28;20453;-65
2023/04/18 00:12:37;;;;;;;8.80;4.53;;;9.30;98.00;;;;;;5051799;28;20477;-65
2023/04/18 00:15:06;;;;;;;9.97;4.37;;;9.20;98.00;;;;;;5052151;28;20462;-66
2023/04/18 00:17:34;;;;;;;10.00;3.90;;;9.30;98.00;;;;;;5051176;28;20570;-65
2023/04/18 00:20:05;;;;;;;6.90;3.60;;;9.30;98.00;;;;;;5052048;28;20494;-66
2023/04/18 00:22:33;;;;;;;6.17;3.47;;;9.20;98.00;;;;;;5052519;28;20457;-66
2023/04/18 00:25:01;;;;;;;7.70;4.17;;;9.20;98.00;;;;;;5052120;28;20461;-66
2023/04/18 00:27:29;;;;;;;7.70;4.03;;;9.30;98.00;;;;;;5052053;28;20457;-65
2023/04/18 00:29:56;;;;;;;8.33;4.50;;;9.40;98.00;;;;;;5051809;28;20454;-65
2023/04/18 00:32:23;;;;;;;7.63;3.90;;;9.50;98.00;;;;;;5051767;28;20465;-65
2023/04/18 00:34:50;;;;;;;7.60;3.87;;;9.50;98.00;;;;;;5051685;28;20520;-65
2023/04/18 00:37:17;;;;;;;7.40;4.10;;;9.50;98.00;;;;;;5051808;28;20468;-65
2023/04/18 00:39:45;;;;;;;7.70;4.10;;;9.50;98.00;;;;;;5050403;28;20555;-66
2023/04/18 00:42:14;;;;;;;10.67;4.60;;;9.50;98.00;;;;;;5051819;28;20533;-66
2023/04/18 00:44:43;;;;;;;8.70;4.13;;;9.40;98.00;;;;;;5051862;28;20520;-65
2023/04/18 00:47:10;;;;;;;11.80;4.10;;;9.30;98.00;;;;;;5051736;28;20468;-66
2023/04/18 00:49:37;;;;;;;8.00;4.27;;;9.30;98.00;;;;;;5051790;28;20518;-66
2023/04/18 00:52:04;;;;;;;5.53;3.53;;;9.30;98.00;;;;;;5050979;28;20461;-66
2023/04/18 00:54:31;;;;;;;8.97;4.00;;;9.20;98.00;;;;;;5051707;28;20537;-65
2023/04/18 00:56:58;;;;;;;10.40;4.67;;;9.00;98.00;;;;;;5051771;28;20494;-65
2023/04/18 00:59:28;;;;;;;7.27;3.93;;;9.00;98.00;;;;;;5054865;28;21150;-65
2023/04/18 01:01:55;;;;;;;6.13;3.50;;;9.00;98.00;;;;;;5055804;28;21006;-65
2023/04/18 01:04:22;;;;;;;8.63;4.70;;;8.90;98.00;;;;;;5055503;28;20859;-67
2023/04/18 01:06:51;;;;;;;7.23;3.70;;;8.90;98.00;;;;;;5055764;28;20458;-66
2023/04/18 01:09:19;;;;;;;10.97;4.70;;;8.90;98.00;;;;;;5055556;28;20503;-66
2023/04/18 01:11:46;;;;;;;7.20;3.53;;;9.00;98.00;;;;;;5055656;28;20558;-66
2023/04/18 01:14:14;;;;;;;9.20;4.30;;;9.10;98.00;;;;;;5055504;28;20457;-65
2023/04/18 01:16:43;;;;;;;10.67;4.67;;;9.20;98.00;;;;;;5054473;28;20453;-65
2023/04/18 01:19:10;;;;;;;8.00;3.80;;;9.20;98.00;;;;;;5055494;28;20988;-64
2023/04/18 01:21:40;;;;;;;6.67;3.80;;;9.10;98.00;;;;;;5054337;28;20503;-66
2023/04/18 01:24:11;;;;;;;12.20;4.00;;;9.20;98.00;;;;;;5055088;28;20454;-65
2023/04/18 01:26:38;;;;;;;7.73;3.63;;;9.30;98.00;;;;;;5055131;28;20465;-65
2023/04/18 01:29:07;;;;;;;7.77;3.83;;;9.30;98.00;;;;;;5055012;28;20450;-65
2023/04/18 01:31:35;;;;;;;8.17;3.30;;;9.40;98.00;;;;;;5055225;28;20492;-65
2023/04/18 01:34:03;;;;;;;7.23;3.57;;;9.40;98.00;;;;;;5054893;28;20465;-66
2023/04/18 01:36:30;;;;;;;8.30;3.43;;;9.40;98.00;;;;;;5055055;28;20882;-65
2023/04/18 01:38:58;;;;;;;8.30;3.60;;;9.50;98.00;;;;;;5054750;28;20572;-65
2023/04/18 01:41:28;;;;;;;9.97;4.80;;;9.40;98.00;;;;;;5054977;28;20457;-65
2023/04/18 01:43:55;;;;;;;7.47;3.80;;;9.40;98.00;;;;;;5053653;28;20975;-65
2023/04/18 01:46:23;;;;;;;7.00;3.43;;;9.30;98.00;;;;;;5054832;28;20463;-65
2023/04/18 01:48:50;;;;;;;9.33;4.00;;;9.20;98.00;;;;;;5054708;28;20795;-66
2023/04/18 01:51:17;;;;;;;6.77;3.73;;;9.20;98.00;;;;;;5054989;28;20851;-65
2023/04/18 01:53:44;;;;;;;10.10;3.70;;;9.10;98.00;;;;;;5054788;28;20515;-66
2023/04/18 01:56:11;;;;;;;7.93;3.53;;;9.00;98.00;;;;;;5054766;28;20453;-66
2023/04/18 01:58:41;;;;;;;7.17;3.20;;;8.90;98.00;;;;;;5054510;28;20453;-65
2023/04/18 02:01:10;;;;;;;10.00;4.00;;;8.90;98.00;;;;;;5054697;28;20561;-65
2023/04/18 02:03:38;;;;;;;7.90;3.70;;;8.90;98.00;;;;;;5054700;28;21000;-65
2023/04/18 02:06:05;;;;;;;9.53;3.87;;;9.00;98.00;;;;;;5053413;28;20450;-66
2023/04/18 02:08:35;;;;;;;6.17;3.23;;;9.10;98.00;;;;;;5054331;28;20453;-64
2023/04/18 02:11:02;;;;;;;8.67;4.10;;;9.30;98.00;;;;;;5054428;28;20453;-65
2023/04/18 02:13:30;;;;;;;6.60;3.17;;;9.20;98.00;;;;;;5054620;28;20465;-66
2023/04/18 02:15:59;;;;;;;3.60;2.67;;;9.20;98.00;;;;;;5054279;28;20518;-65
2023/04/18 02:18:26;;;;;;;7.03;3.50;;;9.30;98.00;;;;;;5054293;28;20465;-65
2023/04/18 02:20:53;;;;;;;6.40;3.63;;;9.30;98.00;;;;;;5054137;28;20944;-65
2023/04/18 02:23:20;;;;;;;6.60;3.47;;;9.30;98.00;;;;;;5054074;28;20466;-65
2023/04/18 02:25:47;;;;;;;7.37;3.03;;;9.40;98.00;;;;;;5054011;28;20460;-67
2023/04/18 02:28:17;;;;;;;7.53;3.70;;;9.30;98.00;;;;;;5053978;28;20945;-65
2023/04/18 02:30:44;;;;;;;5.50;3.60;;;9.40;98.00;;;;;;5053950;28;20452;-66
2023/04/18 02:33:13;;;;;;;4.67;2.90;;;9.30;98.00;;;;;;5053897;28;20464;-66
2023/04/18 02:35:40;;;;;;;9.43;4.03;;;9.20;98.00;;;;;;5052733;28;20478;-66
2023/04/18 02:38:10;;;;;;;6.90;3.17;;;9.20;98.00;;;;;;5053855;28;20465;-64
2023/04/18 02:40:37;;;;;;;7.37;3.63;;;9.30;98.00;;;;;;5053778;28;20496;-65
2023/04/18 02:43:04;;;;;;;6.50;3.43;;;9.10;98.00;;;;;;5053734;28;20454;-65
2023/04/18 02:45:31;;;;;;;6.80;3.53;;;9.10;98.00;;;;;;5053853;28;20456;-66
2023/04/18 02:48:02;;;;;;;6.63;3.40;;;9.10;98.00;;;;;;5053650;28;20458;-65
2023/04/18 02:50:34;;;;;;;21.53;4.30;;;9.20;98.00;;;;;;5053629;28;20484;-65
2023/04/18 02:53:01;;;;;;;5.03;3.10;;;9.10;98.00;;;;;;5053753;28;20461;-65
2023/04/18 02:55:28;;;;;;;5.80;3.30;;;9.00;98.00;;;;;;5053716;28;20459;-65
2023/04/18 02:57:56;;;;;;;8.80;3.47;;;8.90;98.00;;;;;;5053277;28;20464;-65
2023/04/18 03:00:25;;;;;;;6.27;3.67;;;8.90;98.00;;;;;;5053515;28;20488;-66
2023/04/18 03:02:52;;;;;;;7.17;3.60;;;9.00;98.00;;;;;;5053600;28;20459;-65
2023/04/18 03:05:22;;;;;;;5.97;3.27;;;9.00;98.00;;;;;;5053730;28;20549;-65
2023/04/18 03:07:50;;;;;;;6.70;3.40;;;9.00;98.00;;;;;;5053563;28;20477;-65
2023/04/18 03:10:17;;;;;;;7.20;4.20;;;9.20;98.00;;;;;;5053820;28;20526;-65
2023/04/18 03:12:46;;;;;;;7.27;3.70;;;9.10;98.00;;;;;;5052441;28;20469;-65
2023/04/18 03:15:13;;;;;;;9.00;4.83;;;9.00;98.00;;;;;;5052685;28;20946;-65
2023/04/18 03:17:42;;;;;;;8.33;4.30;;;9.10;98.00;;;;;;5053324;28;20461;-66
2023/04/18 03:20:11;;;;;;;10.57;4.20;;;9.10;98.00;;;;;;5052336;28;20481;-65
2023/04/18 03:22:38;;;;;;;6.70;3.20;;;9.30;98.00;;;;;;5052303;28;20467;-64
2023/04/18 03:25:08;;;;;;;6.57;3.83;;;9.30;98.00;;;;;;5051088;28;20865;-65
2023/04/18 03:27:36;;;;;;;8.73;4.10;;;9.20;98.00;;;;;;5052340;28;20465;-66
2023/04/18 03:30:04;;;;;;;12.97;3.47;;;9.10;98.00;;;;;;5052303;28;20545;-66
2023/04/18 03:32:33;;;;;;;14.63;3.93;;;9.00;98.00;;;;;;5052894;28;20450;-67
2023/04/18 03:35:02;;;;;;;13.10;4.13;;;8.90;98.00;;;;;;5052566;28;20480;-67
2023/04/18 03:37:29;;;;;;;4.67;2.90;;;8.80;98.00;;;;;;5052876;28;20451;-65
2023/04/18 03:39:57;;;;;;;5.10;2.80;;;8.80;98.00;;;;;;5052573;28;20486;-65
2023/04/18 03:42:25;;;;;;;6.63;3.53;;;8.90;98.00;;;;;;5051505;28;20506;-67
2023/04/18 03:44:53;;;;;;;7.77;3.70;;;8.90;98.00;;;;;;5052550;28;20467;-65
2023/04/18 03:47:20;;;;;;;11.80;4.47;;;9.00;98.00;;;;;;5052651;28;20461;-64
2023/04/18 03:49:47;;;;;;;11.73;4.30;;;9.00;98.00;;;;;;5052651;28;20468;-65
2023/04/18 03:52:14;;;;;;;8.43;3.17;;;9.10;98.00;;;;;;5052660;28;20520;-65
2023/04/18 03:54:41;;;;;;;6.90;3.60;;;9.20;98.00;;;;;;5052590;28;20531;-66
2023/04/18 03:57:09;;;;;;;6.80;3.73;;;9.20;98.00;;;;;;5052223;28;20473;-65
2023/04/18 03:59:38;;;;;;;6.73;3.20;;;9.40;98.00;;;;;;5052384;28;20499;-65
2023/04/18 04:02:06;;;;;;;7.67;4.20;;;9.30;98.00;;;;;;5052627;28;20473;-65
2023/04/18 04:04:33;;;;;;;7.40;3.47;;;9.30;98.00;;;;;;5052688;28;20457;-65
2023/04/18 04:07:00;;;;;;;5.67;3.40;;;9.40;98.00;;;;;;5052250;28;20945;-65
2023/04/18 04:09:27;;;;;;;9.00;4.13;;;9.30;98.00;;;;;;5052434;28;20454;-65
2023/04/18 04:11:55;;;;;;;7.87;3.70;;;9.30;98.00;;;;;;5052070;28;20476;-66
2023/04/18 04:14:23;;;;;;;9.97;3.90;;;9.30;98.00;;;;;;5051958;28;20988;-65
2023/04/18 04:16:52;;;;;;;9.70;4.00;;;9.10;98.00;;;;;;5051872;28;20545;-65
2023/04/18 04:19:19;;;;;;;6.43;3.30;;;9.00;98.00;;;;;;5051974;28;20538;-65
2023/04/18 04:21:46;;;;;;;6.10;3.40;;;8.90;98.00;;;;;;5051934;28;20519;-66
2023/04/18 04:24:13;;;;;;;7.67;4.07;;;8.90;98.00;;;;;;5051981;28;20943;-65
2023/04/18 04:26:41;;;;;;;9.17;4.27;;;8.90;98.00;;;;;;5052049;28;20463;-65
2023/04/18 04:29:10;;;;;;;8.33;3.40;;;8.90;98.00;;;;;;5051766;28;21051;-65
2023/04/18 04:31:37;;;;;;;8.93;3.80;;;8.80;98.00;;;;;;5051732;28;20485;-66
2023/04/18 04:34:05;;;;;;;9.60;3.93;;;8.80;98.00;;;;;;5034102;28;20461;-65
2023/04/18 04:36:38;;;;;;;10.23;4.17;;;8.90;98.00;;;;;;5051916;28;20553;-65
2023/04/18 04:39:07;;;;;;;8.63;4.00;;;8.80;98.00;;;;;;5050115;28;20477;-65
2023/04/18 04:41:36;;;;;;;7.77;3.77;;;8.70;98.00;;;;;;5051803;28;20572;-65
2023/04/18 04:44:06;;;;;;;8.67;4.03;;;8.70;98.00;;;;;;5051764;28;20463;-66
2023/04/18 04:46:33;;;;;;;9.13;4.13;;;8.90;98.00;;;;;;5050780;28;20490;-65
2023/04/18 04:49:00;;;;;;;8.53;3.57;;;8.90;98.00;;;;;;5051665;28;20458;-65
2023/04/18 04:51:28;;;;;;;8.50;4.17;;;8.90;98.00;;;;;;5052103;28;20450;-65
2023/04/18 04:53:55;;;;;;;10.87;4.47;;;9.00;98.00;;;;;;5051943;28;20465;-68
2023/04/18 04:56:23;;;;;;;8.77;3.90;;;9.00;98.00;;;;;;5052034;28;20516;-65
2023/04/18 04:58:50;;;;;;;9.83;5.00;;;8.90;98.00;;;;;;5050725;28;20472;-66
2023/04/18 05:01:17;;;;;;;6.63;3.60;;;8.90;98.00;;;;;;5051855;28;20487;-64
2023/04/18 05:03:45;;;;;;;8.90;4.50;;;8.90;98.00;;;;;;5051880;28;20792;-65
2023/04/18 05:06:12;;;;;;;7.30;3.50;;;8.90;98.00;;;;;;5051492;28;20458;-65
2023/04/18 05:08:42;;;;;;;9.43;3.87;;;9.00;98.00;;;;;;5051470;28;20473;-66
2023/04/18 05:11:09;;;;;;;10.10;4.10;;;9.10;98.00;;;;;;5051585;28;20453;-66
2023/04/18 05:13:36;;;;;;;9.87;4.10;;;9.20;98.00;;;;;;5051149;28;20467;-67
2023/04/18 05:16:03;;;;;;;13.27;4.67;;;9.30;98.00;;;;;;5051260;28;20458;-65
2023/04/18 05:18:30;;;;;;;11.70;3.87;;;9.30;98.00;;;;;;5051465;28;20461;-65
2023/04/18 05:20:57;;;;;;;10.27;4.40;;;9.40;98.00;;;;;;5051497;28;20483;-66
2023/04/18 05:23:24;;;;;;;10.20;3.93;;;9.40;98.00;;;;;;5050033;28;20479;-65
2023/04/18 05:25:53;;;;;;;11.30;4.80;;;9.30;98.00;;;;;;5051493;28;20878;-67
2023/04/18 05:28:21;;;;;;;8.87;4.30;;;9.40;98.00;;;;;;5051301;28;20461;-65
2023/04/18 05:30:49;;;;;;;8.83;4.10;;;9.30;98.00;;;;;;5051292;28;20455;-65
2023/04/18 05:33:16;;;;;;;9.10;4.10;;;9.30;98.00;;;;;;5051392;28;20458;-65
2023/04/18 05:35:44;;;;;;;7.67;3.90;;;9.40;98.00;;;;;;5051290;28;20469;-66
2023/04/18 05:38:11;;;;;;;8.97;4.47;;;9.40;98.00;;;;;;5051240;28;20462;-65
2023/04/18 05:40:38;;;;;;;7.17;3.73;;;9.30;98.00;;;;;;5051396;28;20850;-65
2023/04/18 05:43:07;;;;;;;11.70;4.50;;;9.40;98.00;;;;;;5051225;28;20462;-65
2023/04/18 05:45:35;;;;;;;8.20;4.37;;;9.40;98.00;;;;;;5054529;28;20456;-65
2023/04/18 05:48:02;;;;;;;9.67;4.13;;;9.30;98.00;;;;;;5055000;28;20464;-67
2023/04/18 05:50:29;;;;;;;11.47;5.10;;;9.40;98.00;;;;;;5054638;28;20451;-65
2023/04/18 05:52:57;;;;;;;14.40;4.97;;;9.40;98.00;;;;;;5054133;28;20462;-66
2023/04/18 05:55:25;;;;;;;9.60;4.40;;;9.30;98.00;;;;;;5054092;28;20450;-65
2023/04/18 05:57:52;;;;;;;9.70;4.37;;;9.30;98.00;;;;;;5054316;28;20504;-65
2023/04/18 06:00:21;;;;;;;9.37;4.20;;;9.30;98.00;;;;;;5053981;28;20554;-65
2023/04/18 06:02:49;;;;;;;11.33;4.27;;;9.30;98.00;;;;;;5053920;28;20460;-65
2023/04/18 06:05:16;;;;;;;8.83;4.43;;;9.20;98.00;;;;;;5054025;28;20450;-65
2023/04/18 06:07:43;;;;;;;7.03;3.30;;;9.40;98.00;;;;;;5053794;28;20461;-65
2023/04/18 06:10:12;;;;;;;8.47;3.90;;;9.50;98.00;;;;;;5053564;28;20500;-64
2023/04/18 06:12:39;;;;;;;10.90;4.50;;;9.50;98.00;;;;;;5053461;28;20546;-65
2023/04/18 06:15:07;;;;;;;9.13;4.73;;;9.60;98.00;;;;;;5053225;28;20454;-65
2023/04/18 06:17:37;;;;;;;6.77;3.93;;;9.80;98.00;;;;;;5053487;28;20464;-65
2023/04/18 06:20:07;;;;;;;6.43;3.40;;;9.90;98.00;;;;;;5035492;28;20955;-65
2023/04/18 06:22:34;;;;;;;7.30;3.70;;;9.90;98.00;;;;;;5052386;28;20458;-65
2023/04/18 06:25:01;;;;;;;8.60;4.23;;;10.00;98.00;;;;;;5053279;28;20450;-65
2023/04/18 06:27:28;;;;;;;10.53;4.63;;;10.10;98.00;;;;;;5053170;28;20455;-64
2023/04/18 06:29:55;;;;;;;6.77;4.20;;;10.00;98.00;;;;;;5052054;28;20463;-64
2023/04/18 06:32:23;;;;;;;7.30;4.17;;;10.10;98.00;;;;;;5052234;28;20896;-65
2023/04/18 06:34:51;;;;;;;8.07;4.10;;;10.10;98.00;;;;;;5051811;28;20454;-64
2023/04/18 06:37:19;;;;;;;11.97;4.50;;;10.20;98.00;;;;;;5053001;28;20455;-64
2023/04/18 06:39:47;;;;;;;13.00;3.93;;;10.10;98.00;;;;;;5052845;28;20990;-64
2023/04/18 06:42:14;;;;;;;9.13;4.50;;;10.10;98.00;;;;;;5052977;28;20492;-65
2023/04/18 06:44:41;;;;;;;11.30;4.13;;;10.10;98.00;;;;;;5052959;28;20465;-64
2023/04/18 06:47:09;;;;;;;9.50;3.87;;;10.20;98.00;;;;;;5051786;28;20469;-64
2023/04/18 06:49:36;;;;;;;11.33;4.20;;;10.20;98.00;;;;;;5053000;28;20464;-65
2023/04/18 06:52:05;;;;;;;7.83;4.47;;;10.20;98.00;;;;;;5053095;28;20459;-65
2023/04/18 06:54:32;;;;;;;9.23;3.93;;;10.20;98.00;;;;;;5052743;28;20469;-65
2023/04/18 06:57:01;;;;;;;9.50;4.30;;;10.20;98.00;;;;;;5052921;28;20455;-64
2023/04/18 06:59:28;;;;;;;9.57;4.90;;;10.10;98.00;;;;;;5052724;28;20978;-64
2023/04/18 07:01:55;;;;;;;12.33;3.93;;;10.20;98.00;;;;;;5052697;28;20493;-64
2023/04/18 07:04:22;;;;;;;6.63;3.40;;;10.20;98.00;;;;;;5052660;28;20477;-64
2023/04/18 07:06:49;;;;;;;8.37;3.63;;;10.20;98.00;;;;;;5051011;28;20465;-65
2023/04/18 07:09:18;;;;;;;8.40;4.07;;;10.20;98.00;;;;;;5052526;28;20468;-65
2023/04/18 07:11:45;;;;;;;9.53;4.60;;;10.20;98.00;;;;;;5052458;28;20457;-65
2023/04/18 07:14:12;;;;;;;10.43;4.57;;;10.10;98.00;;;;;;5052245;28;20959;-64
2023/04/18 07:16:39;;;;;;;10.90;4.43;;;10.20;98.00;;;;;;5052674;28;20484;-64
2023/04/18 07:19:09;;;;;;;9.73;3.40;;;10.20;98.00;;;;;;5052241;28;20465;-65
2023/04/18 07:21:39;;;;;;;8.70;4.23;;;10.20;98.00;;;;;;5052329;28;20486;-64
2023/04/18 07:24:06;;;;;;;8.33;3.80;;;10.30;98.00;;;;;;5052076;28;20489;-65
2023/04/18 07:26:36;;;;;;;13.23;4.40;;;10.40;98.00;;;;;;5052351;28;20463;-65
2023/04/18 07:29:03;;;;;;;8.33;4.27;;;10.40;98.00;;;;;;5052152;28;20462;-64
2023/04/18 07:31:31;;;;;;;9.93;4.60;;;10.30;98.00;;;;;;5050941;28;20505;-64
2023/04/18 07:33:58;;;;;;;8.80;3.90;;;10.30;98.00;;;;;;5050789;28;20461;-65
2023/04/18 07:36:29;;;;;;;8.73;4.33;;;10.40;98.00;;;;;;5052065;28;20901;-65
2023/04/18 07:38:56;;;;;;;9.97;4.63;;;10.40;98.00;;;;;;5051590;28;20828;-65
2023/04/18 07:41:23;;;;;;;13.10;4.97;;;10.40;98.00;;;;;;5051991;28;20497;-65
2023/04/18 07:43:52;;;;;;;12.50;4.60;;;10.40;98.00;;;;;;5050559;28;20526;-65
2023/04/18 07:46:19;;;;;;;9.00;4.57;;;10.40;98.00;;;;;;5051968;28;20453;-65
2023/04/18 07:48:46;;;;;;;9.47;4.60;;;10.40;98.00;;;;;;5050641;28;20439;-64
2023/04/18 07:51:14;;;;;;;9.93;4.57;;;10.50;98.00;;;;;;5052024;28;20692;-65
2023/04/18 07:53:42;;;;;;;8.97;4.80;;;10.60;98.00;;;;;;5051889;28;20493;-65
2023/04/18 07:56:11;;;;;;;10.17;4.00;;;10.80;98.00;;;;;;5050627;28;20454;-65
2023/04/18 07:58:39;;;;;;;8.00;3.90;;;11.00;98.00;;;;;;5051817;28;20865;-64
2023/04/18 08:01:12;;;;;;;11.93;4.87;;;11.10;98.00;;;;;;5051456;28;20478;-65
2023/04/18 08:03:39;;;;;;;8.37;4.23;;;11.20;98.00;;;;;;5051714;28;20466;-64
2023/04/18 08:06:06;;;;;;;13.97;5.03;;;11.30;98.00;;;;;;5051513;28;20455;-66
2023/04/18 08:08:33;;;;;;;9.63;4.10;;;11.40;98.00;;;;;;5051043;28;20469;-64
2023/04/18 08:11:01;;;;;;;9.57;4.63;;;11.50;98.00;;;;;;5051538;28;20500;-65
2023/04/18 08:13:28;;;;;;;10.43;3.40;;;11.60;98.00;;;;;;5050298;28;20900;-66
2023/04/18 08:15:58;;;;;;;10.00;4.60;;;11.70;98.00;;;;;;5051347;28;20528;-65
2023/04/18 08:18:26;;;;;;;10.90;4.90;;;11.90;98.00;;;;;;5051460;28;20548;-65
2023/04/18 08:20:54;;;;;;;13.13;4.97;;;12.00;98.00;;;;;;5051346;28;20500;-65
2023/04/18 08:23:21;;;;;;;10.60;4.77;;;12.00;98.00;;;;;;5051314;28;20832;-65
2023/04/18 08:25:48;;;;;;;11.10;4.57;;;12.00;98.00;;;;;;5051316;28;20858;-65
2023/04/18 08:28:15;;;;;;;10.80;4.90;;;12.00;98.00;;;;;;5051319;28;20468;-65
2023/04/18 08:30:47;;;;;;;11.50;5.07;;;12.00;98.00;;;;;;5049979;28;20552;-65
2023/04/18 08:33:14;;;;;;;9.60;4.60;;;12.00;98.00;;;;;;5050133;28;20458;-65
2023/04/18 08:35:43;;;;;;;9.30;4.40;;;12.00;98.00;;;;;;5050065;28;21000;-65
2023/04/18 08:38:10;;;;;;;8.60;4.30;;;11.90;98.00;;;;;;5051213;28;20875;-65
2023/04/18 08:40:39;;;;;;;16.13;5.60;;;11.80;98.00;;;;;;5050858;28;20874;-64
2023/04/18 08:43:08;;;;;;;12.17;4.80;;;11.80;98.00;;;;;;5049979;28;20825;-66
2023/04/18 08:45:37;;;;;;;11.20;5.43;;;11.80;98.00;;;;;;5051155;28;20806;-65
2023/04/18 08:48:06;;;;;;;8.40;4.23;;;11.80;98.00;;;;;;5050238;28;20486;-65
2023/04/18 08:50:34;;;;;;;11.30;4.73;;;11.80;98.00;;;;;;5051302;28;20500;-64
2023/04/18 08:53:02;;;;;;;10.40;4.70;;;11.90;98.00;;;;;;5051093;28;20489;-65
2023/04/18 08:55:29;;;;;;;12.80;6.23;;;11.90;98.00;;;;;;5050948;28;20493;-65
2023/04/18 08:57:56;;;;;;;14.77;5.80;;;11.90;98.00;;;;;;5051049;28;20462;-63
2023/04/18 09:00:28;;;;;;;8.70;4.27;;;12.00;98.00;;;;;;5051130;28;20461;-64
2023/04/18 09:02:57;;;;;;;9.77;4.50;;;12.10;98.00;;;;;;5050946;28;21062;-64
2023/04/18 09:05:25;;;;;;;11.97;4.80;;;12.20;98.00;;;;;;5051034;28;20460;-64
2023/04/18 09:07:56;;;;;;;10.23;4.80;;;12.20;98.00;;;;;;5050886;28;20473;-64
2023/04/18 09:10:29;;;;;;;10.97;4.93;;;12.20;98.00;;;;;;5050819;28;20493;-64
2023/04/18 09:12:58;;;;;;;11.53;5.10;;;12.10;98.00;;;;;;5050803;28;20472;-64
2023/04/18 09:15:27;;;;;;;10.17;4.83;;;12.10;98.00;;;;;;5050865;28;20463;-63
2023/04/18 09:17:56;;;;;;;13.70;5.20;;;12.10;98.00;;;;;;5050873;28;20461;-63
2023/04/18 09:20:34;;;;;;;10.30;4.70;;;12.00;98.00;;;;;;5053862;28;20459;-64
2023/04/18 09:23:04;;;;;;;10.40;5.27;;;12.20;98.00;;;;;;5054543;28;20546;-64
2023/04/18 09:25:36;;;;;;;12.17;4.70;;;12.30;98.00;;;;;;5053302;28;20461;-64
2023/04/18 09:28:04;;;;;;;11.43;4.67;;;12.30;98.00;;;;;;5054531;28;20482;-64
2023/04/18 09:30:38;;;;;;;12.00;4.70;;;12.40;98.00;;;;;;5054603;28;20472;-64
2023/04/18 09:33:08;;;;;;;9.97;5.10;;;12.60;98.00;;;;;;5054779;28;20575;-64
2023/04/18 09:35:36;;;;;;;9.60;4.57;;;12.80;98.00;;;;;;5054634;28;20450;-65
2023/04/18 09:38:04;;;;;;;9.03;4.60;;;12.90;98.00;;;;;;5054977;28;20463;-65
2023/04/18 09:40:33;;;;;;;9.90;4.73;;;13.20;98.00;;;;;;5054778;28;20457;-65
2023/04/18 09:43:01;;;;;;;11.33;4.80;;;13.20;98.00;;;;;;5054141;28;20485;-66
2023/04/18 09:45:29;;;;;;;11.47;4.50;;;13.20;98.00;;;;;;5054900;28;20461;-65
2023/04/18 09:47:56;;;;;;;9.00;4.50;;;13.20;98.00;;;;;;5054702;28;20950;-64
2023/04/18 09:50:23;;;;;;;9.43;4.47;;;13.20;98.00;;;;;;5054589;28;20883;-65
2023/04/18 09:52:50;;;;;;;8.20;5.27;;;13.20;98.00;;;;;;5054863;28;20469;-66
2023/04/18 09:55:18;;;;;;;9.93;4.43;;;13.30;98.00;;;;;;5054528;28;20524;-64
2023/04/18 09:57:48;;;;;;;9.30;4.53;;;13.50;98.00;;;;;;5054632;28;20456;-65
2023/04/18 10:00:22;;;;;;;8.80;4.10;;;13.60;98.00;;;;;;5052922;28;20465;-64
2023/04/18 10:02:56;;;;;;;7.47;4.17;;;13.60;98.00;;;;;;5054259;28;20891;-64
2023/04/18 10:05:26;;;;;;;7.80;3.80;;;13.60;98.00;;;;;;5053052;28;20463;-65
2023/04/18 10:07:55;;;;;;;9.40;4.33;;;13.60;98.00;;;;;;5054325;28;20490;-65
2023/04/18 10:10:22;;;;;;;6.53;3.67;;;13.70;98.00;;;;;;5054178;28;20452;-66
2023/04/18 10:12:55;;;;;;;8.60;3.60;;;13.80;98.00;;;;;;5053942;28;21130;-65
2023/04/18 10:15:25;;;;;;;10.13;4.73;;;14.00;98.00;;;;;;5053715;28;20460;-64
2023/04/18 10:17:54;;;;;;;9.20;4.17;;;14.20;98.00;;;;;;5054267;28;20455;-64
2023/04/18 10:20:23;;;;;;;8.37;4.23;;;14.20;98.00;;;;;;5054224;28;20456;-64
2023/04/18 10:22:51;;;;;;;8.80;3.60;;;14.10;98.00;;;;;;5054079;28;21013;-64
2023/04/18 10:25:47;;;;;;;9.40;4.53;;;14.10;98.00;;;;;;5054088;28;20454;-64
2023/04/18 10:28:15;;;;;;;7.70;3.67;;;14.10;98.00;;;;;;5053818;28;20455;-64
2023/04/18 10:30:51;;;;;;;8.93;3.67;;;14.20;98.00;;;;;;5053774;28;20527;-66
2023/04/18 10:33:33;;;;;;;10.00;3.80;;;14.30;98.00;;;;;;5054208;28;20498;-65
2023/04/18 10:36:05;;;;;;;7.80;3.90;;;14.60;98.00;;;;;;5053984;28;20504;-65
2023/04/18 10:38:35;;;;;;;6.13;3.23;;;14.70;98.00;;;;;;5054275;28;20551;-66
2023/04/18 10:41:29;;;;;;;9.97;4.30;;;14.70;98.00;;;;;;5053839;28;20557;-64
2023/04/18 10:44:16;;;;;;;6.27;3.50;;;14.60;98.00;;;;;;5017354;28;20476;-64
2023/04/18 10:47:30;;;;;;;5.60;3.27;;;14.50;98.00;;;;;;5053381;28;20463;-64
2023/04/18 10:50:00;;;;;;;8.97;3.73;;;14.50;98.00;;;;;;5053318;28;20941;-64
2023/04/18 10:52:28;;;;;;;8.33;3.80;;;14.40;98.00;;;;;;5053335;28;20462;-65
2023/04/18 10:55:07;;;;;;;4.30;2.93;;;14.30;98.00;;;;;;5053414;28;20552;-64
2023/04/18 10:57:44;;;;;;;8.07;3.77;;;14.30;98.00;;;;;;5052961;28;20465;-66
2023/04/18 11:00:16;;;;;;;5.43;3.13;;;14.30;98.00;;;;;;5052727;28;20466;-64
2023/04/18 11:02:51;;;;;;;6.90;3.20;;;14.40;98.00;;;;;;5052999;28;20497;-65
2023/04/18 11:05:24;;;;;;;6.10;3.53;;;14.70;98.00;;;;;;5059707;28;20452;-64
2023/04/18 11:07:51;;;;;;;8.20;3.60;;;15.10;98.00;;;;;;5053286;28;20469;-64
2023/04/18 11:10:21;;;;;;;6.70;3.67;;;15.20;98.00;;;;;;5051974;28;20465;-64
2023/04/18 11:12:48;;;;;;;6.43;3.67;;;15.10;98.00;;;;;;5052809;28;20483;-65
2023/04/18 11:15:20;;;;;;;7.90;3.67;;;15.10;98.00;;;;;;5053046;28;20457;-65
2023/04/18 11:17:56;;;;;;;7.53;3.90;;;15.00;98.00;;;;;;5053150;28;20467;-65
2023/04/18 11:20:23;;;;;;;6.10;3.67;;;14.80;98.00;;;;;;5052947;28;20460;-65
2023/04/18 11:22:54;;;;;;;9.60;4.30;;;14.60;98.00;;;;;;5053060;28;20492;-65
2023/04/18 11:25:25;;;;;;;6.13;3.37;;;14.40;98.00;;;;;;5053239;28;20461;-66
2023/04/18 11:27:53;;;;;;;6.70;3.87;;;14.50;98.00;;;;;;5052961;28;20459;-65
2023/04/18 11:30:22;;;;;;;7.00;3.63;;;14.60;98.00;;;;;;5053148;28;20832;-65
2023/04/18 11:32:50;;;;;;;6.40;3.10;;;14.70;98.00;;;;;;5052951;28;20488;-67
2023/04/18 11:35:18;;;;;;;6.20;3.30;;;14.80;98.00;;;;;;5053186;28;20806;-66
2023/04/18 11:37:45;;;;;;;5.40;3.30;;;15.00;98.00;;;;;;5052639;28;20457;-67
2023/04/18 11:40:13;;;;;;;7.77;3.80;;;15.20;98.00;;;;;;5051553;28;20476;-66
2023/04/18 11:42:43;;;;;;;8.37;3.67;;;15.30;98.00;;;;;;5051796;28;20488;-64
2023/04/18 11:45:13;;;;;;;8.30;4.13;;;15.20;98.00;;;;;;5052550;28;20461;-65
2023/04/18 11:47:43;;;;;;;6.13;3.30;;;15.20;98.00;;;;;;5052359;28;20452;-66
2023/04/18 11:50:12;;;;;;;7.17;3.60;;;14.90;98.00;;;;;;5052346;28;20872;-64
2023/04/18 11:52:41;;;;;;;4.77;2.80;;;14.70;98.00;;;;;;5052388;28;20458;-64
2023/04/18 11:55:17;;;;;;;9.17;3.97;;;14.50;98.00;;;;;;5052195;28;20499;-65
2023/04/18 11:57:51;;;;;;;7.87;4.10;;;14.50;98.00;;;;;;5052420;28;20463;-65
2023/04/18 12:00:31;;;;;;;5.67;3.27;;;14.50;98.00;;;;;;5052020;28;20490;-66
2023/04/18 12:03:01;;;;;;;4.87;2.67;;;14.70;98.00;;;;;;5052065;28;20492;-67
2023/04/18 12:05:34;;;;;;;5.67;3.10;;;14.70;98.00;;;;;;5050757;28;20847;-65
2023/04/18 12:08:08;;;;;;;4.90;3.20;;;14.80;98.00;;;;;;5052124;28;20493;-64
2023/04/18 12:10:46;;;;;;;6.40;2.80;;;14.80;98.00;;;;;;5052130;28;20494;-65
2023/04/18 12:13:14;;;;;;;6.20;2.90;;;14.80;98.00;;;;;;5050977;28;20523;-65
2023/04/18 12:15:43;;;;;;;6.63;3.60;;;14.90;98.00;;;;;;5052116;28;20455;-63
2023/04/18 12:18:13;;;;;;;5.70;2.93;;;14.90;98.00;;;;;;5052133;28;20999;-64
2023/04/18 12:20:45;;;;;;;4.40;2.87;;;14.90;98.00;;;;;;5052317;28;20527;-64
2023/04/18 12:23:29;;;;;;;4.90;2.97;;;14.90;98.00;;;;;;5052102;28;20578;-64
2023/04/18 12:26:00;;;;;;;4.20;2.93;;;15.10;98.00;;;;;;5051984;28;20453;-64
2023/04/18 12:28:27;;;;;;;4.90;3.03;;;15.40;98.00;;;;;;5052150;28;20551;-64
2023/04/18 12:30:55;;;;;;;5.60;2.83;;;15.50;98.00;;;;;;5052030;28;20453;-66
2023/04/18 12:33:24;;;;;;;5.77;2.77;;;15.60;98.00;;;;;;5051977;28;20460;-64
2023/04/18 12:35:52;;;;;;;6.13;3.10;;;15.80;98.00;;;;;;5052174;28;20523;-64
2023/04/18 12:38:21;;;;;;;5.60;2.80;;;15.90;98.00;;;;;;5052085;28;20464;-64
2023/04/18 12:40:51;;;;;;;6.23;3.03;;;16.10;98.00;;;;;;5052069;28;21029;-66
2023/04/18 12:43:18;;;;;;;4.67;3.07;;;16.30;98.00;;;;;;5051719;28;20512;-65
2023/04/18 12:45:46;;;;;;;6.67;4.00;;;16.30;98.00;;;;;;5051829;28;20457;-64
2023/04/18 12:48:13;;;;;;;6.43;3.50;;;16.20;98.00;;;;;;5051926;28;20457;-64
2023/04/18 12:50:42;;;;;;;4.87;3.47;;;16.10;98.00;;;;;;5051731;28;20457;-62
2023/04/18 12:53:09;;;;;;;9.37;3.80;;;15.90;98.00;;;;;;5053085;28;20949;-62
2023/04/18 12:55:36;;;;;;;5.37;3.00;;;15.70;98.00;;;;;;5055996;28;20463;-66
2023/04/18 12:58:03;;;;;;;5.70;3.20;;;15.60;98.00;;;;;;5056142;28;20450;-64